createdAt,value
2018-04-25T00:00:12.531Z,0
2018-04-25T00:01:14.141Z,0
2018-04-25T00:02:15.758Z,0
2018-04-25T00:03:17.371Z,0
2018-04-25T00:04:18.991Z,0
2018-04-25T00:05:20.600Z,0
2018-04-25T00:06:22.216Z,0
2018-04-25T00:07:23.823Z,0
2018-04-25T00:08:25.437Z,0
2018-04-25T00:09:27.048Z,0
2018-04-25T00:10:28.667Z,0
2018-04-25T00:11:30.278Z,0
2018-04-25T00:12:31.892Z,0
2018-04-25T00:13:33.506Z,0
2018-04-25T00:14:35.117Z,0
2018-04-25T00:15:36.734Z,0
2018-04-25T00:16:38.342Z,0
2018-04-25T00:17:39.955Z,0
2018-04-25T00:18:41.573Z,0
2018-04-25T00:19:43.184Z,0
2018-04-25T00:20:44.796Z,0
2018-04-25T00:21:46.408Z,0
2018-04-25T00:22:48.027Z,0
2018-04-25T00:23:49.643Z,0
2018-04-25T00:24:51.261Z,0
2018-04-25T00:25:52.879Z,0
2018-04-25T00:26:54.489Z,0
2018-04-25T00:27:56.108Z,0
2018-04-25T00:28:57.717Z,0
2018-04-25T00:29:59.329Z,0
2018-04-25T00:31:00.947Z,0
2018-04-25T00:32:02.562Z,0
2018-04-25T00:33:04.179Z,0
2018-04-25T00:34:05.789Z,0
2018-04-25T00:35:07.402Z,0
2018-04-25T00:36:09.018Z,0
2018-04-25T00:37:10.629Z,0
2018-04-25T00:38:12.244Z,0
2018-04-25T00:39:13.861Z,0
2018-04-25T00:40:15.481Z,0
2018-04-25T00:41:17.093Z,0
2018-04-25T00:42:18.708Z,0
2018-04-25T00:43:20.324Z,0
2018-04-25T00:44:22.012Z,0
2018-04-25T00:45:23.550Z,0
2018-04-25T00:46:25.161Z,0
2018-04-25T00:47:26.781Z,0
2018-04-25T00:48:28.390Z,0
2018-04-25T00:49:30.008Z,0
2018-04-25T00:50:31.623Z,0
2018-04-25T00:51:33.234Z,0
2018-04-25T00:52:34.852Z,0
2018-04-25T00:53:36.462Z,0
2018-04-25T00:54:38.079Z,0
2018-04-25T00:55:39.695Z,0
2018-04-25T00:56:41.309Z,0
2018-04-25T00:57:42.924Z,0
2018-04-25T00:58:44.538Z,0
2018-04-25T00:59:46.150Z,0
2018-04-25T01:00:47.770Z,0
2018-04-25T01:01:49.385Z,0
2018-04-25T01:02:50.999Z,0
2018-04-25T01:03:52.616Z,0
2018-04-25T01:04:54.233Z,0
2018-04-25T01:05:55.841Z,0
2018-04-25T01:06:57.455Z,0
2018-04-25T01:07:59.071Z,0
2018-04-25T01:09:00.685Z,0
2018-04-25T01:10:02.298Z,0
2018-04-25T01:11:03.912Z,0
2018-04-25T01:12:05.524Z,0
2018-04-25T01:13:07.143Z,0
2018-04-25T01:14:08.760Z,0
2018-04-25T01:15:10.375Z,0
2018-04-25T01:16:11.986Z,0
2018-04-25T01:17:13.595Z,0
2018-04-25T01:18:15.211Z,0
2018-04-25T01:19:16.823Z,0
2018-04-25T01:20:18.434Z,0
2018-04-25T01:21:20.048Z,0
2018-04-25T01:22:21.665Z,0
2018-04-25T01:23:23.278Z,0
2018-04-25T01:24:24.896Z,0
2018-04-25T01:25:26.511Z,0
2018-04-25T01:26:28.121Z,0
2018-04-25T01:27:29.740Z,0
2018-04-25T01:28:31.350Z,0
2018-04-25T01:29:32.965Z,0
2018-04-25T01:30:34.576Z,0
2018-04-25T01:31:36.191Z,0
2018-04-25T01:32:37.801Z,0
2018-04-25T01:33:39.413Z,0
2018-04-25T01:34:41.034Z,0
2018-04-25T01:35:42.645Z,0
2018-04-25T01:36:44.263Z,0
2018-04-25T01:37:45.883Z,0
2018-04-25T01:38:47.488Z,0
2018-04-25T01:39:49.111Z,0
2018-04-25T01:40:50.714Z,0
2018-04-25T01:41:52.325Z,0
2018-04-25T01:42:53.943Z,0
2018-04-25T01:43:55.554Z,0
2018-04-25T01:44:57.171Z,0
2018-04-25T01:45:58.781Z,0
2018-04-25T01:47:00.397Z,0
2018-04-25T01:48:02.005Z,0
2018-04-25T01:49:03.621Z,0
2018-04-25T01:50:05.233Z,0
2018-04-25T01:51:06.851Z,0
2018-04-25T01:52:08.468Z,0
2018-04-25T01:53:10.079Z,0
2018-04-25T01:54:11.689Z,0
2018-04-25T01:55:13.306Z,0
2018-04-25T01:56:14.916Z,0
2018-04-25T01:57:16.533Z,0
2018-04-25T01:58:18.149Z,0
2018-04-25T01:59:19.762Z,0
2018-04-25T02:00:21.370Z,0
2018-04-25T02:01:22.987Z,0
2018-04-25T02:02:24.594Z,0
2018-04-25T02:03:26.211Z,0
2018-04-25T02:04:27.825Z,0
2018-04-25T02:05:29.437Z,0
2018-04-25T02:06:31.059Z,0
2018-04-25T02:07:32.673Z,0
2018-04-25T02:08:34.282Z,0
2018-04-25T02:09:35.893Z,0
2018-04-25T02:10:37.592Z,0
2018-04-25T02:11:39.121Z,0
2018-04-25T02:12:40.734Z,0
2018-04-25T02:13:42.350Z,0
2018-04-25T02:14:43.962Z,0
2018-04-25T02:15:45.571Z,0
2018-04-25T02:16:47.182Z,0
2018-04-25T02:17:48.800Z,0
2018-04-25T02:18:50.417Z,0
2018-04-25T02:19:52.027Z,0
2018-04-25T02:20:53.642Z,0
2018-04-25T02:21:55.261Z,0
2018-04-25T02:22:56.866Z,0
2018-04-25T02:23:58.483Z,0
2018-04-25T02:25:00.099Z,0
2018-04-25T02:26:01.711Z,0
2018-04-25T02:27:03.325Z,0
2018-04-25T02:28:04.942Z,0
2018-04-25T02:29:06.547Z,0
2018-04-25T02:30:08.169Z,0
2018-04-25T02:31:09.783Z,0
2018-04-25T02:32:11.394Z,0
2018-04-25T02:33:13.011Z,0
2018-04-25T02:34:14.621Z,0
2018-04-25T02:35:16.238Z,0
2018-04-25T02:36:17.852Z,0
2018-04-25T02:37:19.461Z,0
2018-04-25T02:38:21.079Z,0
2018-04-25T02:39:22.696Z,0
2018-04-25T02:40:24.305Z,0
2018-04-25T02:41:25.922Z,0
2018-04-25T02:42:27.536Z,0
2018-04-25T02:43:29.154Z,0
2018-04-25T02:44:30.765Z,0
2018-04-25T02:45:32.383Z,0
2018-04-25T02:46:33.996Z,0
2018-04-25T02:47:35.603Z,0
2018-04-25T02:48:37.230Z,0
2018-04-25T02:49:38.840Z,0
2018-04-25T02:50:40.447Z,0
2018-04-25T02:51:42.059Z,0
2018-04-25T02:52:43.673Z,0
2018-04-25T02:53:45.288Z,0
2018-04-25T02:54:46.895Z,0
2018-04-25T02:55:48.508Z,0
2018-04-25T02:56:50.120Z,0
2018-04-25T02:57:51.732Z,0
2018-04-25T02:58:53.396Z,0
2018-04-25T02:59:54.956Z,0
2018-04-25T03:00:56.568Z,0
2018-04-25T03:01:58.196Z,0
2018-04-25T03:02:59.810Z,0
2018-04-25T03:04:01.431Z,0
2018-04-25T03:05:03.036Z,0
2018-04-25T03:06:04.652Z,0
2018-04-25T03:07:06.260Z,0
2018-04-25T03:08:07.884Z,0
2018-04-25T03:09:09.503Z,0
2018-04-25T03:10:11.117Z,0
2018-04-25T03:11:12.729Z,0
2018-04-25T03:12:14.339Z,0
2018-04-25T03:13:15.956Z,0
2018-04-25T03:14:17.564Z,0
2018-04-25T03:15:19.175Z,0
2018-04-25T03:16:20.786Z,0
2018-04-25T03:17:22.405Z,0
2018-04-25T03:18:24.021Z,0
2018-04-25T03:19:25.627Z,0
2018-04-25T03:20:27.237Z,0
2018-04-25T03:21:28.853Z,0
2018-04-25T03:22:30.542Z,0
2018-04-25T03:23:32.079Z,0
2018-04-25T03:24:33.696Z,0
2018-04-25T03:25:35.309Z,0
2018-04-25T03:26:36.922Z,0
2018-04-25T03:27:38.533Z,0
2018-04-25T03:28:40.144Z,0
2018-04-25T03:29:41.756Z,0
2018-04-25T03:30:43.376Z,0
2018-04-25T03:31:44.997Z,0
2018-04-25T03:32:46.604Z,0
2018-04-25T03:33:48.214Z,0
2018-04-25T03:34:49.827Z,0
2018-04-25T03:35:51.436Z,0
2018-04-25T03:36:53.054Z,0
2018-04-25T03:37:54.662Z,0
2018-04-25T03:38:56.276Z,0
2018-04-25T03:39:57.893Z,0
2018-04-25T03:40:59.549Z,0
2018-04-25T03:42:01.118Z,0
2018-04-25T03:43:02.748Z,0
2018-04-25T03:44:04.359Z,0
2018-04-25T03:45:05.973Z,0
2018-04-25T03:46:07.589Z,0
2018-04-25T03:47:09.206Z,0
2018-04-25T03:48:10.812Z,0
2018-04-25T03:49:12.437Z,4
2018-04-25T03:50:14.039Z,4
2018-04-25T03:51:15.658Z,4
2018-04-25T03:52:17.267Z,4
2018-04-25T03:53:18.880Z,8
2018-04-25T03:54:20.502Z,4
2018-04-25T03:55:22.105Z,4
2018-04-25T03:56:23.722Z,4
2018-04-25T03:57:25.336Z,4
2018-04-25T03:58:26.944Z,4
2018-04-25T03:59:28.563Z,4
2018-04-25T04:00:30.201Z,8
2018-04-25T04:01:31.819Z,12
2018-04-25T04:02:33.434Z,12
2018-04-25T04:03:35.042Z,8
2018-04-25T04:04:36.654Z,4
2018-04-25T04:05:38.269Z,8
2018-04-25T04:06:39.886Z,16
2018-04-25T04:07:41.502Z,16
2018-04-25T04:08:43.110Z,12
2018-04-25T04:09:44.727Z,16
2018-04-25T04:10:46.337Z,12
2018-04-25T04:11:47.958Z,16
2018-04-25T04:12:49.567Z,20
2018-04-25T04:13:51.178Z,24
2018-04-25T04:14:52.797Z,32
2018-04-25T04:15:54.406Z,32
2018-04-25T04:16:56.023Z,48
2018-04-25T04:17:57.634Z,44
2018-04-25T04:18:59.249Z,60
2018-04-25T04:20:00.866Z,72
2018-04-25T04:21:02.491Z,76
2018-04-25T04:22:04.099Z,80
2018-04-25T04:23:05.716Z,68
2018-04-25T04:24:07.329Z,84
2018-04-25T04:25:08.942Z,72
2018-04-25T04:26:10.553Z,68
2018-04-25T04:27:12.173Z,80
2018-04-25T04:28:13.792Z,156
2018-04-25T04:29:15.404Z,184
2018-04-25T04:30:17.029Z,104
2018-04-25T04:31:18.638Z,104
2018-04-25T04:32:20.256Z,120
2018-04-25T04:33:21.886Z,104
2018-04-25T04:34:23.496Z,124
2018-04-25T04:35:25.113Z,192
2018-04-25T04:36:26.738Z,260
2018-04-25T04:37:28.355Z,276
2018-04-25T04:38:29.965Z,284
2018-04-25T04:39:31.584Z,252
2018-04-25T04:40:33.204Z,216
2018-04-25T04:41:34.817Z,272
2018-04-25T04:42:36.437Z,232
2018-04-25T04:43:38.050Z,160
2018-04-25T04:44:39.669Z,228
2018-04-25T04:45:41.290Z,200
2018-04-25T04:46:42.906Z,116
2018-04-25T04:47:44.518Z,84
2018-04-25T04:48:46.136Z,208
2018-04-25T04:49:47.753Z,304
2018-04-25T04:50:49.369Z,424
2018-04-25T04:51:50.989Z,776
2018-04-25T04:52:52.600Z,692
2018-04-25T04:53:54.220Z,728
2018-04-25T04:54:55.836Z,732
2018-04-25T04:55:57.452Z,808
2018-04-25T04:56:59.073Z,676
2018-04-25T04:58:00.687Z,784
2018-04-25T04:59:02.302Z,896
2018-04-25T05:00:03.924Z,956
2018-04-25T05:01:05.536Z,992
2018-04-25T05:02:07.159Z,1036
2018-04-25T05:03:08.783Z,1112
2018-04-25T05:04:10.398Z,1144
2018-04-25T05:05:12.017Z,1120
2018-04-25T05:06:13.645Z,852
2018-04-25T05:07:15.328Z,452
2018-04-25T05:08:16.875Z,316
2018-04-25T05:09:18.504Z,304
2018-04-25T05:10:20.109Z,300
2018-04-25T05:11:21.724Z,304
2018-04-25T05:12:23.368Z,348
2018-04-25T05:13:24.979Z,268
2018-04-25T05:14:26.599Z,340
2018-04-25T05:15:28.216Z,656
2018-04-25T05:16:29.831Z,1012
2018-04-25T05:17:31.455Z,1080
2018-04-25T05:18:33.071Z,1072
2018-04-25T05:19:34.692Z,856
2018-04-25T05:20:36.317Z,1060
2018-04-25T05:21:37.949Z,1460
2018-04-25T05:22:39.571Z,2064
2018-04-25T05:23:41.187Z,1988
2018-04-25T05:24:42.883Z,2024
2018-04-25T05:25:44.427Z,2136
2018-04-25T05:26:46.045Z,2360
2018-04-25T05:27:47.669Z,2304
2018-04-25T05:28:49.282Z,1504
2018-04-25T05:29:50.905Z,1492
2018-04-25T05:30:52.522Z,1436
2018-04-25T05:31:54.230Z,1384
2018-04-25T05:32:55.765Z,1292
2018-04-25T05:33:57.385Z,944
2018-04-25T05:34:59.009Z,1076
2018-04-25T05:36:00.624Z,1204
2018-04-25T05:37:02.248Z,1388
2018-04-25T05:38:03.860Z,1640
2018-04-25T05:39:05.491Z,1840
2018-04-25T05:40:07.107Z,1496
2018-04-25T05:41:08.729Z,1440
2018-04-25T05:42:10.354Z,1540
2018-04-25T05:43:11.966Z,1456
2018-04-25T05:44:13.583Z,1848
2018-04-25T05:45:15.204Z,2184
2018-04-25T05:46:16.818Z,1988
2018-04-25T05:47:18.443Z,1836
2018-04-25T05:48:20.060Z,1604
2018-04-25T05:49:21.690Z,1888
2018-04-25T05:50:23.295Z,1812
2018-04-25T05:51:24.918Z,1456
2018-04-25T05:52:26.537Z,1492
2018-04-25T05:53:28.158Z,720
2018-04-25T05:54:29.780Z,740
2018-04-25T05:55:31.396Z,1556
2018-04-25T05:56:33.019Z,2080
2018-04-25T05:57:34.644Z,2340
2018-04-25T05:58:36.260Z,2008
2018-04-25T05:59:37.883Z,1612
2018-04-25T06:00:39.503Z,1820
2018-04-25T06:01:41.119Z,1856
2018-04-25T06:02:42.741Z,2072
2018-04-25T06:03:44.363Z,1868
2018-04-25T06:04:46.006Z,2024
2018-04-25T06:05:47.621Z,2528
2018-04-25T06:06:49.236Z,3108
2018-04-25T06:07:50.863Z,3788
2018-04-25T06:08:52.480Z,3364
2018-04-25T06:09:54.100Z,2456
2018-04-25T06:10:55.722Z,1952
2018-04-25T06:11:57.338Z,1764
2018-04-25T06:12:58.960Z,1852
2018-04-25T06:14:00.575Z,2316
2018-04-25T06:15:02.196Z,3304
2018-04-25T06:16:03.818Z,3340
2018-04-25T06:17:05.437Z,3032
2018-04-25T06:18:07.067Z,2868
2018-04-25T06:19:08.679Z,3064
2018-04-25T06:20:10.301Z,4360
2018-04-25T06:21:11.918Z,4504
2018-04-25T06:22:13.535Z,3528
2018-04-25T06:23:15.159Z,3992
2018-04-25T06:24:16.774Z,4844
2018-04-25T06:25:18.406Z,4676
2018-04-25T06:26:20.014Z,4060
2018-04-25T06:27:21.641Z,3192
2018-04-25T06:28:23.255Z,1968
2018-04-25T06:29:24.869Z,1784
2018-04-25T06:30:26.501Z,1588
2018-04-25T06:31:28.116Z,2184
2018-04-25T06:32:29.741Z,2252
2018-04-25T06:33:31.363Z,2424
2018-04-25T06:34:32.975Z,2100
2018-04-25T06:35:34.598Z,1600
2018-04-25T06:36:36.214Z,1644
2018-04-25T06:37:37.833Z,2144
2018-04-25T06:38:39.460Z,3052
2018-04-25T06:39:41.079Z,2376
2018-04-25T06:40:42.699Z,2496
2018-04-25T06:41:44.316Z,2968
2018-04-25T06:42:45.941Z,2020
2018-04-25T06:43:47.555Z,1436
2018-04-25T06:44:49.255Z,1304
2018-04-25T06:45:50.801Z,1164
2018-04-25T06:46:52.423Z,1324
2018-04-25T06:47:54.044Z,2236
2018-04-25T06:48:55.656Z,1460
2018-04-25T06:49:57.276Z,1528
2018-04-25T06:50:58.897Z,2456
2018-04-25T06:52:00.515Z,2228
2018-04-25T06:53:02.137Z,1804
2018-04-25T06:54:03.754Z,1912
2018-04-25T06:55:05.374Z,1972
2018-04-25T06:56:06.985Z,1844
2018-04-25T06:57:08.608Z,2096
2018-04-25T06:58:10.228Z,2604
2018-04-25T06:59:11.845Z,2728
2018-04-25T07:00:13.465Z,2804
2018-04-25T07:01:15.088Z,2876
2018-04-25T07:02:16.700Z,2536
2018-04-25T07:03:18.318Z,2932
2018-04-25T07:04:19.938Z,3132
2018-04-25T07:05:21.554Z,2748
2018-04-25T07:06:23.176Z,2560
2018-04-25T07:07:24.792Z,3036
2018-04-25T07:08:26.415Z,4692
2018-04-25T07:09:28.037Z,5508
2018-04-25T07:10:29.653Z,6180
2018-04-25T07:11:31.267Z,5704
2018-04-25T07:12:32.885Z,5412
2018-04-25T07:13:34.507Z,5504
2018-04-25T07:14:36.128Z,5752
2018-04-25T07:15:37.743Z,5944
2018-04-25T07:16:39.370Z,5648
2018-04-25T07:17:40.974Z,4864
2018-04-25T07:18:42.591Z,4452
2018-04-25T07:19:44.208Z,4456
2018-04-25T07:20:45.832Z,4484
2018-04-25T07:21:47.447Z,4812
2018-04-25T07:22:49.069Z,5148
2018-04-25T07:23:50.732Z,4756
2018-04-25T07:24:52.307Z,4564
2018-04-25T07:25:53.923Z,4108
2018-04-25T07:26:55.543Z,3612
2018-04-25T07:27:57.168Z,4128
2018-04-25T07:28:58.779Z,7488
2018-04-25T07:30:00.404Z,12144
2018-04-25T07:31:02.025Z,8660
2018-04-25T07:32:03.641Z,7780
2018-04-25T07:33:05.256Z,6408
2018-04-25T07:34:06.880Z,7676
2018-04-25T07:35:08.520Z,9260
2018-04-25T07:36:10.117Z,8824
2018-04-25T07:37:11.736Z,7632
2018-04-25T07:38:13.355Z,7684
2018-04-25T07:39:14.980Z,8576
2018-04-25T07:40:16.596Z,9724
2018-04-25T07:41:18.219Z,6740
2018-04-25T07:42:19.837Z,6784
2018-04-25T07:43:21.454Z,6708
2018-04-25T07:44:23.078Z,6404
2018-04-25T07:45:24.697Z,7180
2018-04-25T07:46:26.320Z,6708
2018-04-25T07:47:27.941Z,7712
2018-04-25T07:48:29.560Z,10060
2018-04-25T07:49:31.183Z,12480
2018-04-25T07:50:32.805Z,14364
2018-04-25T07:51:34.437Z,11568
2018-04-25T07:52:36.059Z,12332
2018-04-25T07:53:37.676Z,9268
2018-04-25T07:54:39.300Z,6464
2018-04-25T07:55:40.923Z,9072
2018-04-25T07:56:42.542Z,9744
2018-04-25T07:57:44.267Z,9628
2018-04-25T07:58:45.802Z,10984
2018-04-25T07:59:47.411Z,7680
2018-04-25T08:00:49.033Z,11112
2018-04-25T08:01:50.658Z,12364
2018-04-25T08:02:52.275Z,8088
2018-04-25T08:03:53.919Z,6008
2018-04-25T08:04:55.546Z,10540
2018-04-25T08:05:57.189Z,8404
2018-04-25T08:06:58.795Z,7448
2018-04-25T08:08:00.416Z,8392
2018-04-25T08:09:02.058Z,11636
2018-04-25T08:10:03.683Z,10240
2018-04-25T08:11:05.316Z,14708
2018-04-25T08:12:06.927Z,16960
2018-04-25T08:13:08.556Z,13928
2018-04-25T08:14:10.177Z,12388
2018-04-25T08:15:11.797Z,8108
2018-04-25T08:16:13.418Z,7536
2018-04-25T08:17:15.045Z,10536
2018-04-25T08:18:16.672Z,12760
2018-04-25T08:19:18.293Z,8408
2018-04-25T08:20:19.921Z,11012
2018-04-25T08:21:21.540Z,12180
2018-04-25T08:22:23.164Z,17344
2018-04-25T08:23:24.785Z,20160
2018-04-25T08:24:26.411Z,13876
2018-04-25T08:25:28.034Z,13372
2018-04-25T08:26:29.667Z,10780
2018-04-25T08:27:31.287Z,7368
2018-04-25T08:28:32.911Z,14160
2018-04-25T08:29:34.540Z,17056
2018-04-25T08:30:36.167Z,18368
2018-04-25T08:31:37.788Z,9300
2018-04-25T08:32:39.417Z,12840
2018-04-25T08:33:41.041Z,15200
2018-04-25T08:34:42.668Z,10772
2018-04-25T08:35:44.296Z,8488
2018-04-25T08:36:45.920Z,9968
2018-04-25T08:37:47.543Z,8116
2018-04-25T08:38:49.174Z,5100
2018-04-25T08:39:50.794Z,7084
2018-04-25T08:40:52.419Z,9424
2018-04-25T08:41:54.053Z,5692
2018-04-25T08:42:55.675Z,3108
2018-04-25T08:43:57.300Z,2756
2018-04-25T08:44:59.014Z,1804
2018-04-25T08:46:00.546Z,1344
2018-04-25T08:47:02.171Z,1728
2018-04-25T08:48:03.795Z,1704
2018-04-25T08:49:05.418Z,2208
2018-04-25T08:50:07.045Z,2536
2018-04-25T08:51:08.666Z,2752
2018-04-25T08:52:10.368Z,1904
2018-04-25T08:53:11.908Z,1572
2018-04-25T08:54:13.536Z,1100
2018-04-25T08:55:15.157Z,940
2018-04-25T08:56:16.782Z,1088
2018-04-25T08:57:18.407Z,1356
2018-04-25T08:58:20.022Z,1748
2018-04-25T08:59:21.727Z,2188
2018-04-25T09:00:23.268Z,4156
2018-04-25T09:01:24.898Z,6140
2018-04-25T09:02:26.512Z,5372
2018-04-25T09:03:28.140Z,4772
2018-04-25T09:04:29.758Z,4796
2018-04-25T09:05:31.379Z,3240
2018-04-25T09:06:32.996Z,2524
2018-04-25T09:07:34.621Z,2120
2018-04-25T09:08:36.242Z,2768
2018-04-25T09:09:37.869Z,2020
2018-04-25T09:10:39.487Z,3164
2018-04-25T09:11:41.108Z,2124
2018-04-25T09:12:42.725Z,2232
2018-04-25T09:13:44.345Z,3276
2018-04-25T09:14:45.970Z,4872
2018-04-25T09:15:47.587Z,7692
2018-04-25T09:16:49.218Z,11476
2018-04-25T09:17:50.835Z,10520
2018-04-25T09:18:52.464Z,10592
2018-04-25T09:19:54.085Z,9636
2018-04-25T09:20:55.708Z,11276
2018-04-25T09:21:57.328Z,15156
2018-04-25T09:22:58.955Z,13408
2018-04-25T09:24:00.582Z,10428
2018-04-25T09:25:02.204Z,13176
2018-04-25T09:26:03.825Z,11988
2018-04-25T09:27:05.449Z,14476
2018-04-25T09:28:07.071Z,13516
2018-04-25T09:29:08.698Z,15124
2018-04-25T09:30:10.320Z,17152
2018-04-25T09:31:11.945Z,18784
2018-04-25T09:32:13.568Z,16348
2018-04-25T09:33:15.192Z,9536
2018-04-25T09:34:16.811Z,9072
2018-04-25T09:35:18.437Z,9316
2018-04-25T09:36:20.062Z,15748
2018-04-25T09:37:21.686Z,12900
2018-04-25T09:38:23.309Z,13144
2018-04-25T09:39:24.957Z,36256
2018-04-25T09:40:26.565Z,33824
2018-04-25T09:41:28.190Z,12384
2018-04-25T09:42:29.815Z,14956
2018-04-25T09:43:31.436Z,32224
2018-04-25T09:44:33.061Z,43712
2018-04-25T09:45:34.694Z,11004
2018-04-25T09:46:36.321Z,7804
2018-04-25T09:47:37.941Z,9200
2018-04-25T09:48:39.564Z,8880
2018-04-25T09:49:41.197Z,7272
2018-04-25T09:50:42.831Z,4924
2018-04-25T09:51:44.515Z,9448
2018-04-25T09:52:46.073Z,53472
2018-04-25T09:53:47.698Z,18048
2018-04-25T09:54:49.322Z,10912
2018-04-25T09:55:50.945Z,12732
2018-04-25T09:56:52.574Z,13380
2018-04-25T09:57:54.230Z,11004
2018-04-25T09:58:55.828Z,38240
2018-04-25T09:59:57.455Z,57792
2018-04-25T10:00:59.080Z,12788
2018-04-25T10:02:00.709Z,10684
2018-04-25T10:03:02.353Z,14032
2018-04-25T10:04:04.043Z,13124
2018-04-25T10:05:05.615Z,28288
2018-04-25T10:06:07.231Z,30272
2018-04-25T10:07:08.856Z,30912
2018-04-25T10:08:10.488Z,34080
2018-04-25T10:09:12.108Z,19584
2018-04-25T10:10:13.737Z,36384
2018-04-25T10:11:15.369Z,7412
2018-04-25T10:12:16.997Z,12504
2018-04-25T10:13:18.624Z,67776
2018-04-25T10:14:20.251Z,29728
2018-04-25T10:15:21.936Z,68992
2018-04-25T10:16:23.511Z,64896
2018-04-25T10:17:25.175Z,61280
2018-04-25T10:18:26.764Z,12764
2018-04-25T10:19:28.395Z,37568
2018-04-25T10:20:30.026Z,18592
2018-04-25T10:21:31.657Z,15072
2018-04-25T10:22:33.294Z,20864
2018-04-25T10:23:34.918Z,21408
2018-04-25T10:24:36.546Z,11448
2018-04-25T10:25:38.235Z,9512
2018-04-25T10:26:39.808Z,8508
2018-04-25T10:27:41.429Z,9744
2018-04-25T10:28:43.064Z,10008
2018-04-25T10:29:44.687Z,8948
2018-04-25T10:30:46.317Z,11112
2018-04-25T10:31:47.944Z,10848
2018-04-25T10:32:49.612Z,10808
2018-04-25T10:33:51.236Z,9752
2018-04-25T10:34:52.865Z,8980
2018-04-25T10:35:54.488Z,8352
2018-04-25T10:36:56.119Z,10880
2018-04-25T10:37:57.742Z,12208
2018-04-25T10:38:59.377Z,12284
2018-04-25T10:40:00.995Z,14832
2018-04-25T10:41:02.625Z,10536
2018-04-25T10:42:04.246Z,13388
2018-04-25T10:43:05.879Z,14696
2018-04-25T10:44:07.516Z,20096
2018-04-25T10:45:09.131Z,13928
2018-04-25T10:46:10.758Z,10504
2018-04-25T10:47:12.386Z,13508
2018-04-25T10:48:14.012Z,15544
2018-04-25T10:49:15.636Z,13456
2018-04-25T10:50:17.273Z,10324
2018-04-25T10:51:18.892Z,9196
2018-04-25T10:52:20.520Z,11368
2018-04-25T10:53:22.140Z,13656
2018-04-25T10:54:23.763Z,9508
2018-04-25T10:55:25.413Z,7912
2018-04-25T10:56:27.013Z,9368
2018-04-25T10:57:28.643Z,11692
2018-04-25T10:58:30.272Z,12388
2018-04-25T10:59:31.892Z,12864
2018-04-25T11:00:33.514Z,14664
2018-04-25T11:01:35.142Z,40160
2018-04-25T11:02:36.763Z,19072
2018-04-25T11:03:38.394Z,14544
2018-04-25T11:04:40.038Z,12516
2018-04-25T11:05:41.645Z,14244
2018-04-25T11:06:43.271Z,17408
2018-04-25T11:07:44.899Z,17824
2018-04-25T11:08:46.525Z,90560
2018-04-25T11:09:48.148Z,15528
2018-04-25T11:10:49.779Z,9836
2018-04-25T11:11:51.404Z,13156
2018-04-25T11:12:53.028Z,18784
2018-04-25T11:13:54.651Z,17184
2018-04-25T11:14:56.273Z,24256
2018-04-25T11:15:57.910Z,58336
2018-04-25T11:16:59.532Z,15408
2018-04-25T11:18:01.166Z,21888
2018-04-25T11:19:02.791Z,62528
2018-04-25T11:20:04.415Z,29472
2018-04-25T11:21:06.047Z,20544
2018-04-25T11:22:07.671Z,18208
2018-04-25T11:23:09.301Z,22560
2018-04-25T11:24:10.926Z,38368
2018-04-25T11:25:12.555Z,15448
2018-04-25T11:26:14.187Z,36064
2018-04-25T11:27:15.813Z,45184
2018-04-25T11:28:17.442Z,48128
2018-04-25T11:29:19.067Z,20224
2018-04-25T11:30:20.704Z,11692
2018-04-25T11:31:22.330Z,28864
2018-04-25T11:32:23.964Z,28704
2018-04-25T11:33:25.593Z,18112
2018-04-25T11:34:27.224Z,35808
2018-04-25T11:35:28.856Z,17440
2018-04-25T11:36:30.484Z,34464
2018-04-25T11:37:32.119Z,32992
2018-04-25T11:38:33.751Z,31328
2018-04-25T11:39:35.386Z,30112
2018-04-25T11:40:37.016Z,11016
2018-04-25T11:41:38.652Z,30752
2018-04-25T11:42:40.282Z,30048
2018-04-25T11:43:41.917Z,28448
2018-04-25T11:44:43.548Z,30176
2018-04-25T11:45:45.189Z,34752
2018-04-25T11:46:46.826Z,21184
2018-04-25T11:47:48.463Z,15240
2018-04-25T11:48:50.096Z,17824
2018-04-25T11:49:51.736Z,16960
2018-04-25T11:50:53.364Z,13096
2018-04-25T11:51:54.994Z,16992
2018-04-25T11:52:56.627Z,24384
2018-04-25T11:53:58.257Z,31616
2018-04-25T11:54:59.900Z,108256
2018-04-25T11:56:01.530Z,73504
2018-04-25T11:57:03.159Z,112224
2018-04-25T11:58:04.790Z,56672
2018-04-25T11:59:06.428Z,12408
2018-04-25T12:00:08.063Z,11172
2018-04-25T12:01:09.690Z,9652
2018-04-25T12:02:11.327Z,8796
2018-04-25T12:03:12.960Z,8932
2018-04-25T12:04:14.592Z,9220
2018-04-25T12:05:16.220Z,9888
2018-04-25T12:06:17.844Z,11012
2018-04-25T12:07:19.479Z,9272
2018-04-25T12:08:21.101Z,7428
2018-04-25T12:09:22.730Z,6712
2018-04-25T12:10:24.363Z,7416
2018-04-25T12:11:25.990Z,7508
2018-04-25T12:12:27.620Z,7184
2018-04-25T12:13:29.243Z,5788
2018-04-25T12:14:30.869Z,5472
2018-04-25T12:15:32.496Z,5964
2018-04-25T12:16:34.118Z,7668
2018-04-25T12:17:35.750Z,13356
2018-04-25T12:18:37.464Z,58368
2018-04-25T12:19:39.009Z,99392
2018-04-25T12:20:40.662Z,19008
2018-04-25T12:21:42.262Z,18272
2018-04-25T12:22:43.893Z,86720
2018-04-25T12:23:45.520Z,83840
2018-04-25T12:24:47.154Z,89152
2018-04-25T12:25:48.781Z,101184
2018-04-25T12:26:50.409Z,102176
2018-04-25T12:27:52.034Z,101952
2018-04-25T12:28:53.665Z,99488
2018-04-25T12:29:55.294Z,99232
2018-04-25T12:30:56.926Z,101280
2018-04-25T12:31:58.560Z,99008
2018-04-25T12:33:00.187Z,98080
2018-04-25T12:34:01.828Z,100928
2018-04-25T12:35:03.452Z,101952
2018-04-25T12:36:05.083Z,102464
2018-04-25T12:37:06.719Z,36928
2018-04-25T12:38:08.354Z,33760
2018-04-25T12:39:09.986Z,106880
2018-04-25T12:40:11.621Z,97056
2018-04-25T12:41:13.258Z,11040
2018-04-25T12:42:14.890Z,7528
2018-04-25T12:43:16.525Z,5872
2018-04-25T12:44:18.154Z,5620
2018-04-25T12:45:19.791Z,7924
2018-04-25T12:46:21.423Z,9472
2018-04-25T12:47:23.053Z,9148
2018-04-25T12:48:24.680Z,9568
2018-04-25T12:49:26.316Z,10184
2018-04-25T12:50:27.945Z,27744
2018-04-25T12:51:29.580Z,14232
2018-04-25T12:52:31.215Z,8768
2018-04-25T12:53:32.843Z,7524
2018-04-25T12:54:34.469Z,11996
2018-04-25T12:55:36.097Z,27424
2018-04-25T12:56:37.731Z,93664
2018-04-25T12:57:39.358Z,64768
2018-04-25T12:58:40.984Z,54592
2018-04-25T12:59:42.612Z,18944
2018-04-25T13:00:44.246Z,33760
2018-04-25T13:01:45.918Z,57312
2018-04-25T13:02:47.504Z,101216
2018-04-25T13:03:49.131Z,24928
2018-04-25T13:04:50.764Z,44608
2018-04-25T13:05:52.396Z,77728
2018-04-25T13:06:54.028Z,93088
2018-04-25T13:07:55.654Z,20800
2018-04-25T13:08:57.304Z,27456
2018-04-25T13:09:58.910Z,91680
2018-04-25T13:11:00.541Z,89280
2018-04-25T13:12:02.174Z,20992
2018-04-25T13:13:03.801Z,11364
2018-04-25T13:14:05.436Z,8980
2018-04-25T13:15:07.160Z,7948
2018-04-25T13:16:08.693Z,8948
2018-04-25T13:17:10.328Z,10792
2018-04-25T13:18:11.960Z,10308
2018-04-25T13:19:13.585Z,9300
2018-04-25T13:20:15.221Z,11276
2018-04-25T13:21:16.854Z,12700
2018-04-25T13:22:18.474Z,12172
2018-04-25T13:23:20.107Z,10760
2018-04-25T13:24:21.731Z,10096
2018-04-25T13:25:23.357Z,12080
2018-04-25T13:26:24.984Z,81088
2018-04-25T13:27:26.608Z,86592
2018-04-25T13:28:28.239Z,85120
2018-04-25T13:29:29.867Z,82784
2018-04-25T13:30:31.497Z,83392
2018-04-25T13:31:33.123Z,85568
2018-04-25T13:32:34.751Z,16176
2018-04-25T13:33:36.377Z,31552
2018-04-25T13:34:38.010Z,83168
2018-04-25T13:35:39.640Z,64096
2018-04-25T13:36:41.267Z,15572
2018-04-25T13:37:42.922Z,37632
2018-04-25T13:38:44.523Z,24640
2018-04-25T13:39:46.154Z,44512
2018-04-25T13:40:47.788Z,81536
2018-04-25T13:41:49.419Z,79456
2018-04-25T13:42:51.049Z,78624
2018-04-25T13:43:52.681Z,79232
2018-04-25T13:44:54.310Z,81632
2018-04-25T13:45:55.936Z,80640
2018-04-25T13:46:57.569Z,82176
2018-04-25T13:47:59.201Z,79808
2018-04-25T13:49:00.827Z,75680
2018-04-25T13:50:02.462Z,47360
2018-04-25T13:51:04.089Z,31104
2018-04-25T13:52:05.722Z,52096
2018-04-25T13:53:07.356Z,73760
2018-04-25T13:54:09.039Z,74848
2018-04-25T13:55:10.618Z,77600
2018-04-25T13:56:12.245Z,13988
2018-04-25T13:57:13.885Z,40896
2018-04-25T13:58:15.510Z,33824